Time;durP1;ratioP1;P1;durP2;ratioP2;P2;SDS_P1;SDS_P2;PMS_P1;PMS_P2;Temp;Humidity;BMP_temperature;BMP_pressure;BME280_temperature;BME280_humidity;BME280_pressure;Samples;Min_cycle;Max_cycle;Signal;HPM_P1;HPM_P2
2024/04/06 00:01:33;;;;;;;15.02;2.58;;;11.30;99.90;;;;;;5135582;27;20035;-70
2024/04/06 00:03:58;;;;;;;9.60;2.53;;;11.40;99.90;;;;;;5135172;27;20060;-70
2024/04/06 00:06:24;;;;;;;9.88;2.50;;;11.40;99.90;;;;;;5135678;27;20039;-70
2024/04/06 00:08:50;;;;;;;10.75;2.70;;;11.40;99.90;;;;;;5135157;27;20061;-70
2024/04/06 00:11:16;;;;;;;12.00;2.20;;;11.40;99.90;;;;;;5135229;27;20096;-70
2024/04/06 00:13:42;;;;;;;11.85;2.55;;;11.40;99.90;;;;;;5134817;27;20045;-70
2024/04/06 00:16:08;;;;;;;10.75;2.38;;;11.40;99.90;;;;;;5134389;27;20113;-70
2024/04/06 00:18:35;;;;;;;14.48;2.38;;;11.40;99.90;;;;;;5134959;27;20047;-70
2024/04/06 00:21:02;;;;;;;6.60;2.70;;;11.40;99.90;;;;;;5135140;27;20047;-70
2024/04/06 00:23:28;;;;;;;9.30;2.47;;;11.40;99.90;;;;;;5134873;27;20043;-70
2024/04/06 00:25:54;;;;;;;9.75;2.10;;;11.40;99.90;;;;;;5135243;27;20066;-70
2024/04/06 00:28:19;;;;;;;15.32;2.75;;;11.30;99.90;;;;;;5134920;27;20039;-70
2024/04/06 00:30:45;;;;;;;9.60;2.20;;;11.30;99.90;;;;;;5135026;27;20042;-70
2024/04/06 00:33:12;;;;;;;9.75;2.25;;;11.30;99.90;;;;;;5134787;27;20035;-70
2024/04/06 00:35:38;;;;;;;9.20;2.10;;;11.30;99.90;;;;;;5135145;27;20114;-70
2024/04/06 00:38:04;;;;;;;10.32;2.58;;;11.30;99.90;;;;;;5134975;27;20062;-70
2024/04/06 00:40:30;;;;;;;7.55;2.65;;;11.20;99.90;;;;;;5134515;27;20063;-70
2024/04/06 00:42:56;;;;;;;14.10;2.53;;;11.20;99.90;;;;;;5133097;27;20579;-70
2024/04/06 00:45:21;;;;;;;8.90;2.78;;;11.20;99.90;;;;;;5135013;27;20102;-70
2024/04/06 00:47:47;;;;;;;7.22;2.97;;;11.20;99.90;;;;;;5134926;27;20039;-70
2024/04/06 00:50:13;;;;;;;8.25;2.83;;;11.20;99.90;;;;;;5134534;27;20137;-70
2024/04/06 00:52:39;;;;;;;7.05;2.10;;;11.20;99.90;;;;;;5134466;27;20041;-70
2024/04/06 00:55:05;;;;;;;9.35;3.30;;;11.30;99.90;;;;;;5134146;27;20110;-70
2024/04/06 00:57:31;;;;;;;12.45;2.78;;;11.30;99.90;;;;;;5134485;27;20039;-70
2024/04/06 00:59:57;;;;;;;8.05;2.70;;;11.30;99.90;;;;;;5134536;27;20043;-70
2024/04/06 01:02:23;;;;;;;10.35;2.47;;;11.30;99.90;;;;;;5134571;27;20418;-70
2024/04/06 01:04:49;;;;;;;12.20;3.05;;;11.30;99.90;;;;;;5133973;27;20027;-70
2024/04/06 01:07:14;;;;;;;10.10;2.80;;;11.30;99.90;;;;;;5134481;27;20563;-70
2024/04/06 01:09:41;;;;;;;6.43;2.75;;;11.40;99.90;;;;;;5134012;27;20043;-70
2024/04/06 01:12:07;;;;;;;12.90;2.92;;;11.30;99.90;;;;;;5134160;27;20039;-70
2024/04/06 01:14:33;;;;;;;9.68;2.85;;;11.30;99.90;;;;;;5133963;27;20430;-70
2024/04/06 01:16:58;;;;;;;13.60;2.95;;;11.30;99.90;;;;;;5134364;27;20027;-70
2024/04/06 01:19:24;;;;;;;9.07;2.70;;;11.30;99.90;;;;;;5132631;27;20039;-70
2024/04/06 01:21:50;;;;;;;11.10;3.28;;;11.30;99.90;;;;;;5134096;27;20521;-70
2024/04/06 01:24:28;;;;;;;11.73;2.92;;;11.30;99.90;;;;;;5133578;27;20406;-70
2024/04/06 01:26:55;;;;;;;10.20;3.13;;;11.30;99.90;;;;;;5134238;27;20042;-70
2024/04/06 01:29:24;;;;;;;10.23;2.33;;;11.30;99.90;;;;;;5133225;27;20039;-70
2024/04/06 01:31:49;;;;;;;7.97;2.35;;;11.30;99.90;;;;;;5133918;27;20035;-70
2024/04/06 01:34:15;;;;;;;8.60;2.22;;;11.30;99.90;;;;;;5133474;27;20038;-70
2024/04/06 01:36:41;;;;;;;9.52;3.40;;;11.30;99.90;;;;;;5133844;27;20101;-70
2024/04/06 01:39:11;;;;;;;10.73;2.92;;;11.30;99.90;;;;;;5133700;27;20627;-70
2024/04/06 01:41:37;;;;;;;9.27;2.70;;;11.20;99.90;;;;;;5133922;27;20047;-70
2024/04/06 01:44:04;;;;;;;12.27;3.60;;;11.20;99.90;;;;;;5133438;27;20066;-70
2024/04/06 01:46:30;;;;;;;9.75;3.03;;;11.20;99.90;;;;;;5133678;27;20035;-70
2024/04/06 01:48:57;;;;;;;13.30;3.50;;;11.20;99.90;;;;;;5133596;27;20095;-70
2024/04/06 01:51:22;;;;;;;6.10;3.03;;;11.30;99.90;;;;;;5133092;27;20035;-70
2024/04/06 01:53:48;;;;;;;10.35;3.30;;;11.20;99.90;;;;;;5132990;27;20122;-70
2024/04/06 01:56:14;;;;;;;12.07;2.97;;;11.30;99.90;;;;;;5133592;27;20440;-70
2024/04/06 01:58:39;;;;;;;7.68;3.13;;;11.20;99.90;;;;;;5133529;27;20050;-70
2024/04/06 02:01:05;;;;;;;8.98;3.85;;;11.30;99.90;;;;;;5133152;27;20046;-70
2024/04/06 02:03:31;;;;;;;9.13;3.25;;;11.20;99.90;;;;;;5132853;27;20035;-70
2024/04/06 02:06:00;;;;;;;8.57;2.60;;;11.20;99.90;;;;;;5133291;27;20509;-70
2024/04/06 02:08:25;;;;;;;12.60;2.63;;;11.20;99.90;;;;;;5133367;27;20031;-70
2024/04/06 02:10:51;;;;;;;12.48;3.50;;;11.10;99.90;;;;;;5133149;27;20619;-70
2024/04/06 02:13:17;;;;;;;12.48;3.10;;;11.10;99.90;;;;;;5132875;27;20031;-70
2024/04/06 02:15:44;;;;;;;11.30;3.17;;;11.10;99.90;;;;;;5133256;27;20042;-70
2024/04/06 02:18:10;;;;;;;8.30;3.30;;;11.00;99.90;;;;;;5133179;27;20043;-70
2024/04/06 02:20:37;;;;;;;9.02;3.22;;;11.00;99.90;;;;;;5132702;27;20084;-70
2024/04/06 02:23:03;;;;;;;10.95;3.25;;;11.00;99.90;;;;;;5132743;27;20130;-70
2024/04/06 02:25:29;;;;;;;10.13;3.03;;;11.00;99.90;;;;;;5133161;27;20130;-70
2024/04/06 02:27:55;;;;;;;10.88;3.80;;;11.00;99.90;;;;;;5133074;27;20034;-70
2024/04/06 02:30:21;;;;;;;11.90;3.03;;;11.00;99.90;;;;;;5132640;27;20050;-70
2024/04/06 02:32:48;;;;;;;8.60;3.20;;;11.00;99.90;;;;;;5132385;27;20067;-70
2024/04/06 02:35:14;;;;;;;11.65;3.30;;;11.00;99.90;;;;;;5132747;27;20042;-70
2024/04/06 02:37:40;;;;;;;9.02;3.38;;;11.10;99.90;;;;;;5132992;27;20126;-70
2024/04/06 02:40:08;;;;;;;11.15;3.65;;;11.10;99.90;;;;;;5132643;27;20070;-70
2024/04/06 02:42:34;;;;;;;13.95;3.13;;;11.10;99.90;;;;;;5132630;27;20513;-70
2024/04/06 02:45:00;;;;;;;10.00;3.28;;;11.10;99.90;;;;;;5132311;27;20043;-70
2024/04/06 02:47:25;;;;;;;14.15;3.65;;;11.10;99.90;;;;;;5131872;27;20703;-70
2024/04/06 02:49:51;;;;;;;14.55;3.50;;;11.10;99.90;;;;;;5132255;27;20451;-71
2024/04/06 02:52:17;;;;;;;11.02;3.78;;;11.20;99.90;;;;;;5132460;28;20031;-70
2024/04/06 02:54:43;;;;;;;10.35;3.53;;;11.10;99.90;;;;;;5132253;28;20478;-70
2024/04/06 02:57:08;;;;;;;14.20;4.00;;;11.20;99.90;;;;;;5132685;27;20046;-70
2024/04/06 02:59:34;;;;;;;11.85;3.60;;;11.20;99.90;;;;;;5132391;28;20035;-70
2024/04/06 03:02:00;;;;;;;10.13;3.17;;;11.20;99.90;;;;;;5132579;28;20423;-70
2024/04/06 03:04:25;;;;;;;13.27;3.58;;;11.20;99.90;;;;;;5131972;27;20043;-69
2024/04/06 03:06:51;;;;;;;11.95;3.33;;;11.20;99.90;;;;;;5132601;28;20031;-69
2024/04/06 03:09:18;;;;;;;9.82;3.60;;;11.20;99.90;;;;;;5131081;28;20046;-69
2024/04/06 03:11:45;;;;;;;14.95;4.50;;;11.30;99.90;;;;;;5132202;27;20131;-69
2024/04/06 03:14:10;;;;;;;13.65;3.75;;;11.30;99.90;;;;;;5132018;27;20039;-69
2024/04/06 03:16:36;;;;;;;13.45;3.70;;;11.30;99.90;;;;;;5132398;27;20633;-69
2024/04/06 03:19:02;;;;;;;12.55;3.67;;;11.30;99.90;;;;;;5131267;28;20047;-69
2024/04/06 03:21:28;;;;;;;12.95;3.53;;;11.30;99.90;;;;;;5132192;27;20035;-69
2024/04/06 03:23:54;;;;;;;9.45;3.15;;;11.30;99.90;;;;;;5132036;27;20035;-69
2024/04/06 03:26:20;;;;;;;13.90;3.33;;;11.30;99.90;;;;;;5132410;28;20088;-69
2024/04/06 03:28:45;;;;;;;10.50;4.60;;;11.30;99.90;;;;;;5132344;28;20047;-69
2024/04/06 03:31:11;;;;;;;8.63;2.63;;;11.30;99.90;;;;;;5131978;28;20035;-69
2024/04/06 03:33:36;;;;;;;10.13;3.30;;;11.30;99.90;;;;;;5131694;28;20031;-69
2024/04/06 03:36:03;;;;;;;9.80;3.22;;;11.30;99.90;;;;;;5132378;28;20094;-69
2024/04/06 03:38:28;;;;;;;9.77;3.22;;;11.40;99.90;;;;;;5132370;27;20039;-69
2024/04/06 03:40:55;;;;;;;8.38;3.38;;;11.30;99.90;;;;;;5131997;28;20502;-69
2024/04/06 03:43:21;;;;;;;9.75;3.78;;;11.40;99.90;;;;;;5130366;28;20458;-69
2024/04/06 03:45:47;;;;;;;11.75;4.93;;;11.30;99.90;;;;;;5132198;27;20035;-69
2024/04/06 03:48:13;;;;;;;14.57;4.18;;;11.40;99.90;;;;;;5131662;27;20038;-69
2024/04/06 03:50:39;;;;;;;11.63;4.65;;;11.30;99.90;;;;;;5131825;27;20073;-69
2024/04/06 03:53:06;;;;;;;10.65;3.90;;;11.30;99.90;;;;;;5134058;27;20051;-69
2024/04/06 03:55:31;;;;;;;10.60;4.15;;;11.20;99.90;;;;;;5134710;27;20487;-69
2024/04/06 03:57:57;;;;;;;8.70;3.80;;;11.20;99.90;;;;;;5135960;27;20039;-69
2024/04/06 04:00:23;;;;;;;10.77;3.90;;;11.20;99.90;;;;;;5135548;27;20042;-69
2024/04/06 04:02:48;;;;;;;11.02;4.65;;;11.20;99.90;;;;;;5135066;27;20502;-69
2024/04/06 04:05:14;;;;;;;12.90;4.22;;;11.20;99.90;;;;;;5135798;27;20092;-69
2024/04/06 04:07:40;;;;;;;16.45;4.15;;;11.10;99.90;;;;;;5135741;27;20121;-69
2024/04/06 04:10:06;;;;;;;9.50;3.97;;;11.10;99.90;;;;;;5135410;27;20483;-69
2024/04/06 04:12:33;;;;;;;12.80;3.80;;;11.00;99.90;;;;;;5135502;27;20039;-69
2024/04/06 04:15:05;;;;;;;6.72;3.55;;;11.10;99.90;;;;;;5135032;27;20031;-69
2024/04/06 04:17:33;;;;;;;11.05;4.07;;;11.10;99.90;;;;;;5135341;27;20088;-68
2024/04/06 04:20:00;;;;;;;11.50;4.50;;;11.10;99.90;;;;;;5135346;27;20050;-69
2024/04/06 04:22:26;;;;;;;12.80;4.68;;;11.10;99.90;;;;;;5135184;27;20410;-69
2024/04/06 04:24:52;;;;;;;9.60;4.30;;;11.10;99.90;;;;;;5134892;27;20032;-69
2024/04/06 04:27:18;;;;;;;11.43;4.30;;;11.10;99.90;;;;;;5122012;27;20035;-69
2024/04/06 04:29:44;;;;;;;6.65;4.35;;;11.10;99.90;;;;;;5114262;28;20047;-70
2024/04/06 04:32:10;;;;;;;11.63;4.20;;;11.10;99.90;;;;;;5114509;28;20036;-69
2024/04/06 04:34:36;;;;;;;15.35;4.57;;;11.10;99.90;;;;;;5114271;28;20518;-70
2024/04/06 04:37:03;;;;;;;10.98;4.80;;;11.10;99.90;;;;;;5114619;28;20035;-69
2024/04/06 04:39:30;;;;;;;8.80;4.38;;;11.20;99.90;;;;;;5114346;28;20043;-69
2024/04/06 04:41:56;;;;;;;13.27;5.35;;;11.20;99.90;;;;;;5113173;28;20040;-69
2024/04/06 04:44:23;;;;;;;7.47;4.00;;;11.20;99.90;;;;;;5113870;28;20039;-69
2024/04/06 04:46:49;;;;;;;8.10;4.13;;;11.20;99.90;;;;;;5114487;28;20050;-69
2024/04/06 04:49:14;;;;;;;7.25;4.45;;;11.30;99.90;;;;;;5112875;28;20039;-69
2024/04/06 04:51:40;;;;;;;11.15;4.90;;;11.30;99.90;;;;;;5113838;28;20036;-70
2024/04/06 04:54:06;;;;;;;11.57;5.72;;;11.30;99.90;;;;;;5113868;28;20491;-70
2024/04/06 04:56:32;;;;;;;12.35;5.80;;;11.30;99.90;;;;;;5112836;28;20039;-69
2024/04/06 04:58:57;;;;;;;13.50;5.25;;;11.30;99.90;;;;;;5113810;28;20046;-69
2024/04/06 05:01:23;;;;;;;11.45;5.78;;;11.40;99.90;;;;;;5113820;28;20039;-69
2024/04/06 05:03:48;;;;;;;9.90;5.15;;;11.40;99.90;;;;;;5111140;28;20047;-69
2024/04/06 05:06:14;;;;;;;12.32;5.70;;;11.40;99.90;;;;;;5114006;28;20035;-69
2024/04/06 05:08:40;;;;;;;13.20;6.28;;;11.40;99.90;;;;;;5112547;28;20044;-69
2024/04/06 05:11:06;;;;;;;11.13;6.45;;;11.50;99.90;;;;;;5113999;28;20031;-69
2024/04/06 05:13:31;;;;;;;17.77;7.50;;;11.50;99.90;;;;;;5113439;28;20031;-69
2024/04/06 05:15:57;;;;;;;12.18;7.57;;;11.60;99.90;;;;;;5113971;28;20032;-69
2024/04/06 05:18:23;;;;;;;12.23;7.53;;;11.50;99.90;;;;;;5113593;28;20460;-69
2024/04/06 05:20:49;;;;;;;12.32;7.00;;;11.60;99.90;;;;;;5112311;28;20122;-69
2024/04/06 05:23:15;;;;;;;15.63;8.50;;;11.60;99.90;;;;;;5113241;28;20035;-70
2024/04/06 05:25:40;;;;;;;12.68;7.55;;;11.60;99.90;;;;;;5113700;28;20047;-71
2024/04/06 05:28:06;;;;;;;17.65;7.80;;;11.60;99.90;;;;;;5112200;28;20059;-68
2024/04/06 05:30:32;;;;;;;18.80;8.90;;;11.60;99.90;;;;;;5113291;27;20071;-68
2024/04/06 05:32:57;;;;;;;13.95;8.65;;;11.70;99.90;;;;;;5113062;28;20084;-68
2024/04/06 05:35:23;;;;;;;15.30;9.68;;;11.70;99.90;;;;;;5113458;28;20088;-70
2024/04/06 05:37:48;;;;;;;17.00;9.55;;;11.80;99.90;;;;;;5113413;28;20048;-69
2024/04/06 05:40:14;;;;;;;16.55;9.52;;;11.80;99.90;;;;;;5113048;28;20051;-70
2024/04/06 05:42:40;;;;;;;15.95;9.93;;;11.90;99.90;;;;;;5113062;28;20055;-69
2024/04/06 05:45:07;;;;;;;15.43;8.85;;;12.00;99.90;;;;;;5112609;28;20130;-69
2024/04/06 05:47:34;;;;;;;12.30;9.18;;;12.10;99.90;;;;;;5112076;28;20031;-69
2024/04/06 05:50:00;;;;;;;14.90;9.68;;;12.10;99.90;;;;;;5112891;28;20086;-69
2024/04/06 05:52:25;;;;;;;16.70;9.10;;;12.20;99.90;;;;;;5094335;22;20401;-70
2024/04/06 05:54:51;;;;;;;13.27;9.88;;;12.10;99.90;;;;;;5052353;28;20040;-72
2024/04/06 05:57:17;;;;;;;13.48;9.48;;;12.30;99.90;;;;;;5052214;28;20037;-71
2024/04/06 05:59:42;;;;;;;12.63;8.98;;;12.20;99.90;;;;;;5050792;28;20136;-72
2024/04/06 06:02:08;;;;;;;15.70;10.18;;;12.30;99.90;;;;;;5050932;28;20051;-72
2024/04/06 06:04:34;;;;;;;13.18;8.82;;;12.30;99.90;;;;;;5051710;28;20069;-72
2024/04/06 06:06:59;;;;;;;17.75;10.73;;;12.30;99.90;;;;;;5052204;28;20059;-71
2024/04/06 06:09:25;;;;;;;13.63;9.23;;;12.40;99.90;;;;;;5050507;28;20091;-72
2024/04/06 06:11:51;;;;;;;15.05;9.10;;;12.40;99.90;;;;;;5050552;28;20046;-72
2024/04/06 06:14:16;;;;;;;13.27;8.27;;;12.50;99.90;;;;;;5051478;28;20381;-72
2024/04/06 06:16:42;;;;;;;10.82;9.05;;;12.50;99.90;;;;;;5051612;28;20040;-72
2024/04/06 06:19:07;;;;;;;15.40;9.05;;;12.60;99.90;;;;;;5050631;28;20041;-72
2024/04/06 06:21:33;;;;;;;10.10;8.60;;;12.70;99.90;;;;;;5051579;28;20044;-72
2024/04/06 06:23:59;;;;;;;16.48;9.68;;;12.70;99.90;;;;;;5050253;28;20143;-72
2024/04/06 06:26:24;;;;;;;13.43;9.15;;;12.80;99.90;;;;;;5051806;28;20041;-72
2024/04/06 06:28:50;;;;;;;9.20;8.15;;;12.90;99.90;;;;;;5052081;28;20409;-72
2024/04/06 06:31:15;;;;;;;13.52;8.73;;;12.90;99.90;;;;;;5050301;28;20044;-72
2024/04/06 06:33:41;;;;;;;13.45;7.55;;;12.90;99.90;;;;;;5050261;28;20128;-72
2024/04/06 06:36:07;;;;;;;11.77;7.85;;;13.00;99.90;;;;;;5050414;28;20033;-72
2024/04/06 06:38:32;;;;;;;11.88;7.38;;;13.10;99.90;;;;;;5050350;28;20033;-72
2024/04/06 06:40:58;;;;;;;11.05;8.15;;;13.10;99.90;;;;;;5050203;28;20488;-72
2024/04/06 06:43:24;;;;;;;13.20;8.38;;;13.20;99.90;;;;;;5050169;28;20037;-72
2024/04/06 06:45:50;;;;;;;11.32;8.32;;;13.40;99.90;;;;;;5051702;28;20050;-70
2024/04/06 06:48:16;;;;;;;11.75;7.65;;;13.70;99.90;;;;;;5051566;28;20037;-71
2024/04/06 06:50:41;;;;;;;11.88;7.88;;;14.00;99.90;;;;;;5050941;28;20029;-71
2024/04/06 06:53:07;;;;;;;11.90;8.45;;;14.20;99.90;;;;;;5047525;28;20062;-70
2024/04/06 06:55:33;;;;;;;10.25;6.80;;;14.30;99.90;;;;;;5050552;28;20033;-73
2024/04/06 06:57:58;;;;;;;9.98;6.15;;;14.70;99.90;;;;;;5030788;28;20037;-70
2024/04/06 07:00:24;;;;;;;9.45;6.55;;;15.20;99.90;;;;;;5047427;28;20037;-71
2024/04/06 07:02:50;;;;;;;10.10;6.00;;;15.50;99.90;;;;;;5039758;28;20128;-70
2024/04/06 07:05:15;;;;;;;10.45;7.13;;;15.80;99.90;;;;;;5031405;28;20077;-71
2024/04/06 07:07:41;;;;;;;8.60;5.32;;;16.00;99.90;;;;;;5030403;28;20120;-70
2024/04/06 07:10:07;;;;;;;8.75;4.93;;;16.10;99.90;;;;;;5029832;28;20038;-71
2024/04/06 07:12:32;;;;;;;8.70;5.28;;;16.00;99.90;;;;;;5029956;28;20091;-71
2024/04/06 07:14:58;;;;;;;7.60;4.38;;;16.00;99.90;;;;;;5031039;28;20037;-70
2024/04/06 07:17:24;;;;;;;6.68;4.15;;;16.10;99.90;;;;;;5030063;28;20408;-71
2024/04/06 07:19:50;;;;;;;5.55;4.03;;;16.20;99.90;;;;;;5031137;28;20049;-71
2024/04/06 07:22:16;;;;;;;8.23;4.78;;;16.50;99.90;;;;;;5030036;28;20042;-71
2024/04/06 07:24:44;;;;;;;7.68;3.40;;;16.90;99.90;;;;;;5029755;28;20416;-70
2024/04/06 07:27:10;;;;;;;4.88;3.47;;;17.10;99.90;;;;;;5032109;28;20092;-71
2024/04/06 07:29:35;;;;;;;8.43;2.90;;;17.40;99.90;;;;;;5034724;28;20081;-71
2024/04/06 07:32:01;;;;;;;3.75;2.35;;;17.60;99.90;;;;;;5035119;28;20037;-71
2024/04/06 07:34:27;;;;;;;3.88;2.92;;;17.80;99.90;;;;;;5033332;28;20513;-71
2024/04/06 07:36:52;;;;;;;3.65;2.40;;;17.90;99.90;;;;;;5035089;28;20037;-71
2024/04/06 07:39:18;;;;;;;3.88;2.45;;;18.10;99.90;;;;;;5034900;28;20598;-71
2024/04/06 07:41:43;;;;;;;2.72;2.15;;;18.30;99.90;;;;;;5034858;28;20054;-71
2024/04/06 07:44:09;;;;;;;3.92;2.42;;;18.60;99.90;;;;;;5033463;28;20254;-71
2024/04/06 07:46:35;;;;;;;3.75;2.08;;;18.70;99.90;;;;;;5034945;28;20547;-71
2024/04/06 07:49:01;;;;;;;3.85;2.10;;;18.60;99.90;;;;;;5034885;28;20068;-71
2024/04/06 07:51:26;;;;;;;5.68;2.28;;;18.40;99.90;;;;;;5034487;28;20112;-71
2024/04/06 07:53:52;;;;;;;5.30;2.15;;;18.20;99.90;;;;;;5034209;28;20113;-71
2024/04/06 07:56:18;;;;;;;3.60;1.80;;;18.00;99.90;;;;;;5033456;28;20037;-71
2024/04/06 07:58:43;;;;;;;3.47;2.15;;;17.80;99.90;;;;;;5034781;28;20389;-71
2024/04/06 08:01:09;;;;;;;3.30;2.00;;;17.90;99.90;;;;;;5041442;28;20052;-73
2024/04/06 08:03:34;;;;;;;3.47;2.03;;;18.20;99.90;;;;;;5052376;28;20068;-71
2024/04/06 08:06:01;;;;;;;5.72;2.13;;;18.40;99.90;;;;;;5054455;28;20037;-71
2024/04/06 08:08:27;;;;;;;4.88;2.50;;;18.60;99.90;;;;;;5054244;28;20037;-71
2024/04/06 08:10:53;;;;;;;4.95;1.95;;;18.70;99.90;;;;;;5054265;28;20504;-71
2024/04/06 08:13:18;;;;;;;5.30;2.63;;;18.80;99.90;;;;;;5054073;28;20051;-71
2024/04/06 08:15:45;;;;;;;4.25;1.65;;;19.10;99.90;;;;;;5053172;28;20390;-71
2024/04/06 08:18:10;;;;;;;4.80;1.85;;;19.20;99.90;;;;;;5054365;28;20044;-71
2024/04/06 08:20:36;;;;;;;4.55;2.15;;;19.50;99.90;;;;;;5054041;28;20044;-70
2024/04/06 08:23:02;;;;;;;4.78;1.83;;;19.70;99.90;;;;;;5035830;28;20379;-71
2024/04/06 08:25:28;;;;;;;4.45;2.28;;;19.90;99.90;;;;;;5052731;28;20045;-71
2024/04/06 08:27:53;;;;;;;4.47;2.00;;;20.20;99.90;;;;;;5053016;28;20037;-71
2024/04/06 08:30:19;;;;;;;4.20;2.15;;;20.20;99.90;;;;;;5053777;28;20037;-71
2024/04/06 08:32:45;;;;;;;5.47;2.55;;;20.20;99.90;;;;;;5053774;28;20029;-71
2024/04/06 08:35:12;;;;;;;4.20;2.20;;;20.00;99.90;;;;;;5052607;28;20508;-71
2024/04/06 08:37:44;;;;;;;5.82;2.20;;;19.70;99.90;;;;;;5053615;28;20108;-71
2024/04/06 08:40:10;;;;;;;4.40;1.85;;;19.70;99.90;;;;;;5051524;28;20524;-71
2024/04/06 08:42:44;;;;;;;5.38;1.85;;;19.90;99.90;;;;;;5052648;28;20048;-70
2024/04/06 08:45:13;;;;;;;3.88;1.58;;;20.20;99.90;;;;;;5053613;28;20083;-71
2024/04/06 08:47:42;;;;;;;4.55;1.63;;;20.20;99.90;;;;;;5052398;28;20045;-70
2024/04/06 08:50:10;;;;;;;7.78;1.98;;;20.20;99.90;;;;;;5053171;28;20420;-70
2024/04/06 08:52:37;;;;;;;6.82;1.83;;;20.10;99.90;;;;;;5052082;28;20116;-70
2024/04/06 08:55:03;;;;;;;3.80;1.70;;;20.40;99.90;;;;;;5053225;28;20485;-70
2024/04/06 08:57:37;;;;;;;4.13;1.63;;;20.50;99.90;;;;;;5053410;28;20536;-70
2024/04/06 09:00:07;;;;;;;2.78;1.42;;;20.40;99.90;;;;;;5053273;28;20041;-69
2024/04/06 09:02:33;;;;;;;4.00;1.35;;;20.20;99.90;;;;;;5052156;28;20523;-71
2024/04/06 09:04:59;;;;;;;3.75;1.50;;;20.00;99.90;;;;;;5052336;28;20488;-70
2024/04/06 09:07:25;;;;;;;2.35;1.40;;;19.90;99.90;;;;;;5053179;28;20044;-73
2024/04/06 09:09:52;;;;;;;5.05;1.48;;;20.00;99.90;;;;;;5051440;28;20037;-73
2024/04/06 09:12:18;;;;;;;2.55;1.60;;;19.90;99.90;;;;;;5051809;28;20036;-72
2024/04/06 09:14:46;;;;;;;4.95;1.50;;;19.80;99.90;;;;;;5034642;28;20044;-72
2024/04/06 09:17:16;;;;;;;4.10;1.70;;;19.80;99.90;;;;;;5051894;28;20041;-72
2024/04/06 09:19:42;;;;;;;7.80;1.77;;;19.80;99.90;;;;;;5051623;28;20049;-72
2024/04/06 09:22:08;;;;;;;3.40;2.00;;;19.60;99.90;;;;;;5051759;28;20488;-72
2024/04/06 09:24:34;;;;;;;2.38;1.77;;;19.60;99.90;;;;;;5051562;28;20044;-72
2024/04/06 09:27:08;;;;;;;3.38;1.77;;;19.70;99.90;;;;;;5051792;28;20119;-72
2024/04/06 09:29:35;;;;;;;4.38;1.58;;;19.70;99.90;;;;;;5052302;28;20041;-72
2024/04/06 09:32:05;;;;;;;4.70;2.60;;;19.70;99.90;;;;;;5052621;28;20556;-72
2024/04/06 09:34:31;;;;;;;3.50;2.08;;;19.60;99.90;;;;;;5051282;28;20040;-73
2024/04/06 09:37:01;;;;;;;4.97;2.35;;;19.60;99.90;;;;;;5052716;28;20045;-73
2024/04/06 09:39:32;;;;;;;3.15;1.80;;;20.00;99.90;;;;;;5051243;28;20423;-73
2024/04/06 09:42:03;;;;;;;3.10;1.50;;;20.10;99.90;;;;;;5051337;28;20051;-73
2024/04/06 09:44:30;;;;;;;4.43;1.60;;;20.20;99.90;;;;;;5050986;28;20099;-73
2024/04/06 09:46:55;;;;;;;4.18;2.20;;;20.30;99.90;;;;;;5052735;28;20043;-73
2024/04/06 09:49:24;;;;;;;2.83;1.70;;;20.40;99.90;;;;;;5052256;28;20041;-73
2024/04/06 09:51:53;;;;;;;6.88;2.15;;;20.40;99.90;;;;;;5050730;28;20072;-73
2024/04/06 09:54:20;;;;;;;3.78;2.00;;;20.40;99.90;;;;;;5050634;28;20032;-73
2024/04/06 09:56:49;;;;;;;3.50;1.88;;;20.40;99.90;;;;;;5052166;28;20033;-73
2024/04/06 09:59:22;;;;;;;3.42;2.08;;;20.40;99.90;;;;;;5052415;28;20397;-73
2024/04/06 10:01:48;;;;;;;2.58;1.90;;;20.40;99.90;;;;;;5050752;28;20493;-73
2024/04/06 10:04:37;;;;;;;3.67;1.45;;;20.50;99.90;;;;;;5050473;28;20041;-73
2024/04/06 10:07:06;;;;;;;3.67;1.98;;;20.60;99.90;;;;;;5051539;28;20053;-73
2024/04/06 10:09:35;;;;;;;2.60;1.70;;;20.60;99.90;;;;;;5050448;28;20045;-73
2024/04/06 10:12:03;;;;;;;2.63;1.63;;;20.70;99.90;;;;;;5050718;28;20086;-73
2024/04/06 10:14:29;;;;;;;4.00;1.55;;;20.80;99.90;;;;;;5051757;28;20043;-73
2024/04/06 10:17:07;;;;;;;2.83;1.48;;;20.80;99.90;;;;;;5051041;28;20037;-73
2024/04/06 10:19:40;;;;;;;5.00;1.73;;;21.00;99.90;;;;;;5051823;28;20059;-73
2024/04/06 10:22:06;;;;;;;4.07;1.80;;;21.00;99.90;;;;;;5050980;28;20051;-73
2024/04/06 10:24:34;;;;;;;4.32;1.67;;;21.10;99.90;;;;;;5051517;28;20029;-73
2024/04/06 10:27:00;;;;;;;3.00;1.42;;;21.10;99.90;;;;;;5050634;28;20098;-73
2024/04/06 10:29:28;;;;;;;5.95;2.05;;;21.20;99.90;;;;;;5051553;28;20079;-73
2024/04/06 10:31:54;;;;;;;8.38;2.03;;;21.20;99.90;;;;;;5051676;28;20045;-73
2024/04/06 10:34:20;;;;;;;3.72;1.73;;;21.20;99.90;;;;;;5051077;28;20106;-73
2024/04/06 10:36:47;;;;;;;5.10;1.50;;;21.30;99.90;;;;;;5050354;28;20512;-73
2024/04/06 10:39:14;;;;;;;6.55;1.95;;;21.20;99.90;;;;;;5050512;28;20052;-73
2024/04/06 10:41:44;;;;;;;3.97;1.55;;;21.20;99.90;;;;;;5051419;28;20394;-73
2024/04/06 10:44:10;;;;;;;5.43;1.60;;;21.20;99.90;;;;;;5050166;28;20047;-73
2024/04/06 10:46:36;;;;;;;3.50;1.42;;;21.30;99.90;;;;;;5050322;28;20524;-73
2024/04/06 10:49:12;;;;;;;6.03;1.70;;;21.30;99.90;;;;;;5050057;28;20049;-73
2024/04/06 10:51:38;;;;;;;3.42;1.60;;;21.30;99.90;;;;;;5049751;28;20040;-73
2024/04/06 10:54:04;;;;;;;3.22;1.38;;;21.30;99.90;;;;;;5051165;28;20035;-72
2024/04/06 10:56:32;;;;;;;4.03;1.60;;;21.40;99.90;;;;;;5050174;28;20041;-73
2024/04/06 10:58:58;;;;;;;3.72;1.55;;;21.50;99.90;;;;;;5051554;28;20116;-73
2024/04/06 11:01:24;;;;;;;5.50;1.65;;;21.50;99.90;;;;;;5051048;28;20041;-73
2024/04/06 11:03:50;;;;;;;4.20;1.48;;;21.70;99.90;;;;;;5055094;28;20041;-73
2024/04/06 11:06:16;;;;;;;4.20;1.73;;;21.70;99.90;;;;;;5055767;28;20124;-73
2024/04/06 11:08:42;;;;;;;3.63;1.48;;;21.60;99.90;;;;;;5054489;28;20119;-73
2024/04/06 11:11:08;;;;;;;3.17;1.25;;;21.70;99.90;;;;;;5055251;28;20040;-73
2024/04/06 11:13:38;;;;;;;3.05;1.35;;;21.60;99.90;;;;;;5055141;28;20037;-72
2024/04/06 11:16:04;;;;;;;2.85;1.52;;;21.70;99.90;;;;;;5055289;28;20104;-72
2024/04/06 11:18:47;;;;;;;4.38;1.42;;;21.60;99.90;;;;;;5054183;28;20120;-73
2024/04/06 11:21:13;;;;;;;5.97;2.03;;;21.60;99.90;;;;;;5037076;28;20037;-73
2024/04/06 11:23:40;;;;;;;2.50;1.60;;;21.60;99.90;;;;;;5054843;28;20062;-73
2024/04/06 11:26:07;;;;;;;2.58;1.60;;;21.60;99.90;;;;;;5037578;28;20041;-73
2024/04/06 11:28:33;;;;;;;1.90;1.35;;;21.60;99.90;;;;;;5055135;28;20085;-73
2024/04/06 11:30:59;;;;;;;6.80;1.83;;;21.60;99.90;;;;;;5053573;28;20071;-73
2024/04/06 11:33:26;;;;;;;4.65;2.28;;;21.70;99.90;;;;;;5053626;28;20045;-73
2024/04/06 11:35:52;;;;;;;2.22;1.70;;;21.60;99.90;;;;;;5055025;28;20037;-73
2024/04/06 11:38:17;;;;;;;2.78;1.70;;;21.70;99.90;;;;;;5053554;28;20041;-73
2024/04/06 11:40:47;;;;;;;4.35;1.70;;;21.70;99.90;;;;;;5054669;28;20059;-72
2024/04/06 11:43:14;;;;;;;4.28;1.80;;;21.80;99.90;;;;;;5053119;28;20091;-73
2024/04/06 11:45:40;;;;;;;4.57;2.10;;;21.80;99.90;;;;;;5055022;28;20052;-72
2024/04/06 11:48:06;;;;;;;5.57;1.50;;;21.70;99.90;;;;;;5053536;28;20072;-72
2024/04/06 11:50:32;;;;;;;4.57;2.25;;;21.80;99.90;;;;;;5053171;28;20419;-72
2024/04/06 11:52:57;;;;;;;3.53;1.60;;;21.80;99.90;;;;;;5052870;28;20037;-73
2024/04/06 11:55:23;;;;;;;3.00;1.98;;;21.80;99.90;;;;;;5054591;28;20404;-72
2024/04/06 11:57:49;;;;;;;2.72;1.50;;;21.80;99.90;;;;;;5053217;28;20147;-73
2024/04/06 12:00:15;;;;;;;3.10;1.70;;;21.80;99.90;;;;;;5053322;28;20145;-73
2024/04/06 12:02:41;;;;;;;4.07;1.80;;;21.80;99.90;;;;;;5054582;28;20063;-72
2024/04/06 12:05:07;;;;;;;2.45;1.48;;;21.90;99.90;;;;;;5052730;28;20045;-73
2024/04/06 12:07:34;;;;;;;3.28;1.60;;;21.90;99.90;;;;;;5054475;28;20049;-73
2024/04/06 12:10:00;;;;;;;3.47;1.83;;;22.00;99.90;;;;;;5052736;28;20048;-73
2024/04/06 12:12:25;;;;;;;3.03;1.70;;;22.00;99.90;;;;;;5052630;28;20390;-73
2024/04/06 12:14:51;;;;;;;5.32;1.38;;;22.00;99.90;;;;;;5053640;28;20078;-73
2024/04/06 12:17:26;;;;;;;1.92;1.30;;;22.10;99.90;;;;;;5053247;28;20033;-73
2024/04/06 12:19:52;;;;;;;2.67;1.73;;;22.20;99.90;;;;;;5054106;28;20045;-73
2024/04/06 12:22:19;;;;;;;2.97;1.77;;;22.20;99.90;;;;;;5053098;28;20048;-73
2024/04/06 12:24:44;;;;;;;2.97;1.83;;;22.30;99.90;;;;;;5052195;28;20048;-73
2024/04/06 12:27:12;;;;;;;2.75;1.48;;;22.40;99.90;;;;;;5036247;28;20037;-73
2024/04/06 12:29:38;;;;;;;4.47;2.13;;;22.50;99.90;;;;;;5052474;28;20513;-73
2024/04/06 12:32:04;;;;;;;3.45;1.30;;;22.50;99.90;;;;;;5052621;28;20041;-73
2024/04/06 12:34:30;;;;;;;4.03;1.52;;;22.50;99.90;;;;;;5052218;28;20041;-73
2024/04/06 12:37:00;;;;;;;4.10;1.40;;;22.50;99.90;;;;;;5052834;28;20059;-72
2024/04/06 12:39:26;;;;;;;5.45;1.60;;;22.50;99.90;;;;;;5052234;28;20120;-73